SLM428 SYCJ-KMIA
Flight info
| Callsign | SLM428 |
|---|---|
| Flight time | 4h 20m |
| Altitude | 36000 |
| Route | TIM UA324 POS DCT VUDAL UL337 ARMUR L337 NEGON UL337 BODLO Y298 KNSLY/N0450F380 DCT FORST Y586 MADIZ VIICE2 |
| Aircraft | B738/M-SDE2E3FGHIRWXY/LB1 |
Departure
| Time | 2026-04-25 14:54 |
|---|---|
| Airport | Cheddi Jagan International Airport (SYCJ) |
Arrival
| Time | 2026-04-25 19:14 |
|---|---|
| Airport | Miami International Airport (KMIA) |
| Time | Latitude | Longitude | Altitude | Speed | Heading |
|---|---|---|---|---|---|
| 2026-04-25 14:51 | 6.50187 | -58.25087 | 100 ft | 19 kts | 225° |
| 2026-04-25 14:51 | 6.50066 | -58.25206 | 102 ft | 29 kts | 223° |
| 2026-04-25 14:51 | 6.49902 | -58.25369 | 103 ft | 37 kts | 226° |
| 2026-04-25 14:52 | 6.49708 | -58.25562 | 105 ft | 39 kts | 224° |
| 2026-04-25 14:52 | 6.49517 | -58.25748 | 104 ft | 37 kts | 224° |
| 2026-04-25 14:52 | 6.49332 | -58.25930 | 102 ft | 39 kts | 228° |
| 2026-04-25 14:52 | 6.49208 | -58.26066 | 102 ft | 41 kts | 225° |
| 2026-04-25 14:53 | 6.48941 | -58.26312 | 108 ft | 37 kts | 219° |
| 2026-04-25 14:53 | 6.48769 | -58.26414 | 110 ft | 22 kts | 244° |
| 2026-04-25 14:53 | 6.48820 | -58.26444 | 110 ft | 12 kts | 51° |
| 2026-04-25 14:53 | 6.48910 | -58.26350 | 108 ft | 41 kts | 45° |
| 2026-04-25 14:54 | 6.49295 | -58.25968 | 102 ft | 113 kts | 45° |
| 2026-04-25 14:54 | 6.49988 | -58.25274 | 107 ft | 170 kts | 47° |
| 2026-04-25 14:54 | 6.50893 | -58.24372 | 535 ft | 190 kts | 46° |
| 2026-04-25 14:54 | 6.52047 | -58.23669 | 1219 ft | 204 kts | 13° |
| 2026-04-25 14:55 | 6.53482 | -58.23828 | 1737 ft | 218 kts | 332° |
| 2026-04-25 14:55 | 6.54767 | -58.24721 | 2118 ft | 239 kts | 321° |
| 2026-04-25 14:55 | 6.55877 | -58.26136 | 2064 ft | 275 kts | 292° |
| 2026-04-25 14:55 | 6.56165 | -58.28065 | 2663 ft | 282 kts | 274° |
| 2026-04-25 14:56 | 6.56797 | -58.29941 | 3324 ft | 292 kts | 307° |
| 2026-04-25 14:56 | 6.58210 | -58.31380 | 4202 ft | 287 kts | 321° |
| 2026-04-25 14:56 | 6.59739 | -58.32639 | 5141 ft | 283 kts | 327° |
| 2026-04-25 14:56 | 6.61375 | -58.33749 | 6024 ft | 285 kts | 329° |
| 2026-04-25 14:57 | 6.63051 | -58.34856 | 6704 ft | 291 kts | 328° |
| 2026-04-25 14:57 | 6.64738 | -58.36014 | 7420 ft | 295 kts | 327° |
| 2026-04-25 14:57 | 6.66423 | -58.37223 | 8134 ft | 299 kts | 326° |
| 2026-04-25 14:57 | 6.68106 | -58.38474 | 8838 ft | 303 kts | 325° |
| 2026-04-25 14:58 | 6.69794 | -58.39765 | 9532 ft | 307 kts | 324° |
| 2026-04-25 14:58 | 6.71496 | -58.41091 | 10192 ft | 311 kts | 324° |
| 2026-04-25 14:58 | 6.73227 | -58.42455 | 10429 ft | 332 kts | 324° |
| 2026-04-25 14:58 | 6.75097 | -58.43939 | 10586 ft | 353 kts | 323° |
| 2026-04-25 14:59 | 6.77070 | -58.45517 | 10824 ft | 369 kts | 323° |
| 2026-04-25 14:59 | 6.79097 | -58.47147 | 11327 ft | 375 kts | 323° |
| 2026-04-25 14:59 | 6.81140 | -58.48795 | 11954 ft | 377 kts | 322° |
| 2026-04-25 14:59 | 6.83197 | -58.50457 | 12570 ft | 380 kts | 322° |
| 2026-04-25 15:00 | 6.85270 | -58.52134 | 13155 ft | 384 kts | 322° |
| 2026-04-25 15:00 | 6.87362 | -58.53827 | 13714 ft | 387 kts | 322° |
| 2026-04-25 15:00 | 6.89475 | -58.55536 | 14250 ft | 390 kts | 322° |
| 2026-04-25 15:00 | 6.91594 | -58.57249 | 14764 ft | 393 kts | 322° |
| 2026-04-25 15:01 | 6.93733 | -58.58979 | 15276 ft | 396 kts | 322° |
| 2026-04-25 15:01 | 6.95892 | -58.60725 | 15785 ft | 399 kts | 322° |
| 2026-04-25 15:01 | 6.98063 | -58.62481 | 16274 ft | 402 kts | 322° |
| 2026-04-25 15:01 | 7.00246 | -58.64247 | 16766 ft | 405 kts | 322° |
| 2026-04-25 15:02 | 7.02450 | -58.66030 | 17256 ft | 408 kts | 322° |
| 2026-04-25 15:02 | 7.04671 | -58.67827 | 17722 ft | 411 kts | 322° |
| 2026-04-25 15:02 | 7.06908 | -58.69638 | 18189 ft | 414 kts | 322° |
| 2026-04-25 15:02 | 7.09158 | -58.71459 | 18600 ft | 416 kts | 322° |
| 2026-04-25 15:03 | 7.11423 | -58.73292 | 19028 ft | 418 kts | 322° |
| 2026-04-25 15:03 | 7.13686 | -58.75125 | 19451 ft | 419 kts | 322° |
| 2026-04-25 15:03 | 7.15971 | -58.76974 | 19851 ft | 421 kts | 322° |
| 2026-04-25 15:03 | 7.18266 | -58.78832 | 20260 ft | 424 kts | 322° |
| 2026-04-25 15:04 | 7.20567 | -58.80696 | 20621 ft | 427 kts | 322° |
| 2026-04-25 15:04 | 7.22853 | -58.82548 | 21099 ft | 425 kts | 322° |
| 2026-04-25 15:04 | 7.25170 | -58.84425 | 21463 ft | 430 kts | 322° |
| 2026-04-25 15:04 | 7.27503 | -58.86315 | 21864 ft | 430 kts | 322° |
| 2026-04-25 15:05 | 7.29854 | -58.88220 | 22156 ft | 435 kts | 322° |
| 2026-04-25 15:05 | 7.32202 | -58.90122 | 22617 ft | 433 kts | 322° |
| 2026-04-25 15:05 | 7.34562 | -58.92035 | 22906 ft | 437 kts | 322° |
| 2026-04-25 15:06 | 7.39306 | -58.95884 | 23640 ft | 439 kts | 322° |
| 2026-04-25 15:06 | 7.41692 | -58.97819 | 23912 ft | 441 kts | 321° |
| 2026-04-25 15:06 | 7.44054 | -58.99734 | 24154 ft | 443 kts | 322° |
| 2026-04-25 15:06 | 7.46463 | -59.01688 | 24395 ft | 445 kts | 321° |
| 2026-04-25 15:07 | 7.48886 | -59.03651 | 24605 ft | 449 kts | 322° |
| 2026-04-25 15:07 | 7.51354 | -59.05608 | 24862 ft | 450 kts | 323° |
| 2026-04-25 15:07 | 7.53833 | -59.07545 | 25148 ft | 451 kts | 323° |
| 2026-04-25 15:07 | 7.56330 | -59.09489 | 25403 ft | 453 kts | 323° |
| 2026-04-25 15:08 | 7.58835 | -59.11437 | 25585 ft | 457 kts | 323° |
| 2026-04-25 15:08 | 7.61353 | -59.13400 | 25878 ft | 457 kts | 323° |
| 2026-04-25 15:08 | 7.63875 | -59.15369 | 26090 ft | 460 kts | 322° |
| 2026-04-25 15:08 | 7.66410 | -59.17353 | 26379 ft | 460 kts | 322° |
| 2026-04-25 15:09 | 7.68944 | -59.19338 | 26673 ft | 461 kts | 322° |
| 2026-04-25 15:09 | 7.71475 | -59.21321 | 26979 ft | 461 kts | 322° |
| 2026-04-25 15:09 | 7.76575 | -59.25321 | 27334 ft | 468 kts | 322° |
| 2026-04-25 15:10 | 7.78286 | -59.26662 | 27390 ft | 471 kts | 322° |
| 2026-04-25 15:10 | 7.81715 | -59.29352 | 27772 ft | 471 kts | 322° |
| 2026-04-25 15:10 | 7.86916 | -59.33431 | 28174 ft | 475 kts | 322° |
| 2026-04-25 15:11 | 7.89543 | -59.35492 | 28326 ft | 478 kts | 322° |
| 2026-04-25 15:11 | 7.92172 | -59.37555 | 28520 ft | 480 kts | 322° |
| 2026-04-25 15:11 | 7.94812 | -59.39628 | 28779 ft | 480 kts | 322° |
| 2026-04-25 15:12 | 8.00088 | -59.43770 | 29222 ft | 482 kts | 322° |
| 2026-04-25 15:12 | 8.02741 | -59.45853 | 29405 ft | 484 kts | 322° |
| 2026-04-25 15:12 | 8.05408 | -59.47948 | 29696 ft | 483 kts | 322° |
| 2026-04-25 15:12 | 8.06267 | -59.48622 | 29779 ft | 483 kts | 322° |
| 2026-04-25 15:13 | 8.10714 | -59.52116 | 30250 ft | 481 kts | 322° |
| 2026-04-25 15:13 | 8.15987 | -59.56260 | 30783 ft | 480 kts | 321° |
| 2026-04-25 15:13 | 8.18595 | -59.58311 | 30953 ft | 481 kts | 322° |
| 2026-04-25 15:14 | 8.21238 | -59.60389 | 31138 ft | 482 kts | 321° |
| 2026-04-25 15:14 | 8.23877 | -59.62465 | 31468 ft | 479 kts | 321° |
| 2026-04-25 15:14 | 8.26492 | -59.64521 | 31860 ft | 475 kts | 321° |
| 2026-04-25 15:14 | 8.29095 | -59.66570 | 32122 ft | 474 kts | 321° |
| 2026-04-25 15:15 | 8.31700 | -59.68619 | 32309 ft | 475 kts | 321° |
| 2026-04-25 15:15 | 8.34315 | -59.70677 | 32526 ft | 476 kts | 321° |
| 2026-04-25 15:15 | 8.36929 | -59.72737 | 32685 ft | 477 kts | 321° |
| 2026-04-25 15:15 | 8.39531 | -59.74787 | 33127 ft | 472 kts | 321° |
| 2026-04-25 15:16 | 8.42105 | -59.76817 | 33488 ft | 468 kts | 321° |
| 2026-04-25 15:16 | 8.44670 | -59.78840 | 33752 ft | 468 kts | 321° |
| 2026-04-25 15:16 | 8.49804 | -59.82891 | 34070 ft | 471 kts | 321° |
| 2026-04-25 15:17 | 8.54952 | -59.86953 | 34591 ft | 467 kts | 321° |
| 2026-04-25 15:17 | 8.57516 | -59.88977 | 34804 ft | 466 kts | 321° |
| 2026-04-25 15:17 | 8.60076 | -59.90997 | 34965 ft | 467 kts | 321° |
| 2026-04-25 15:18 | 8.62633 | -59.93017 | 35167 ft | 466 kts | 321° |
| 2026-04-25 15:18 | 8.67749 | -59.97058 | 35495 ft | 466 kts | 321° |
| 2026-04-25 15:18 | 8.70304 | -59.99077 | 35711 ft | 465 kts | 321° |
| 2026-04-25 15:19 | 8.72814 | -60.01060 | 35934 ft | 463 kts | 321° |
| 2026-04-25 15:19 | 8.73670 | -60.01737 | 35978 ft | 463 kts | 321° |
| 2026-04-25 15:19 | 8.80472 | -60.07115 | 35989 ft | 468 kts | 321° |
| 2026-04-25 15:20 | 8.85602 | -60.11173 | 35989 ft | 467 kts | 321° |
| 2026-04-25 15:20 | 8.90726 | -60.15227 | 35982 ft | 467 kts | 321° |
| 2026-04-25 15:21 | 8.94981 | -60.18592 | 35983 ft | 466 kts | 321° |
| 2026-04-25 15:21 | 9.00090 | -60.22630 | 35981 ft | 465 kts | 321° |
| 2026-04-25 15:22 | 9.06019 | -60.27320 | 35969 ft | 465 kts | 321° |
| 2026-04-25 15:22 | 9.11106 | -60.31347 | 35981 ft | 464 kts | 321° |
| 2026-04-25 15:23 | 9.15334 | -60.34696 | 35982 ft | 463 kts | 321° |
| 2026-04-25 15:23 | 9.20423 | -60.38727 | 35975 ft | 463 kts | 321° |
| 2026-04-25 15:24 | 9.25470 | -60.42728 | 35981 ft | 463 kts | 321° |
| 2026-04-25 15:24 | 9.29715 | -60.46093 | 35977 ft | 463 kts | 321° |
| 2026-04-25 15:25 | 9.35626 | -60.50781 | 35974 ft | 464 kts | 321° |
| 2026-04-25 15:25 | 9.40710 | -60.54815 | 35980 ft | 464 kts | 321° |
| 2026-04-25 15:26 | 9.45805 | -60.58858 | 35980 ft | 465 kts | 321° |
| 2026-04-25 15:26 | 9.50903 | -60.62906 | 35988 ft | 466 kts | 321° |
| 2026-04-25 15:27 | 9.55974 | -60.66934 | 35988 ft | 466 kts | 321° |
| 2026-04-25 15:28 | 9.63636 | -60.73023 | 35978 ft | 466 kts | 321° |
| 2026-04-25 15:28 | 9.68743 | -60.77084 | 35985 ft | 466 kts | 321° |
| 2026-04-25 15:29 | 9.73841 | -60.81139 | 35983 ft | 466 kts | 321° |
| 2026-04-25 15:29 | 9.78940 | -60.85196 | 35986 ft | 466 kts | 321° |
| 2026-04-25 15:30 | 9.84033 | -60.89250 | 35981 ft | 465 kts | 321° |
| 2026-04-25 15:30 | 9.89124 | -60.93305 | 35979 ft | 465 kts | 321° |
| 2026-04-25 15:31 | 9.94206 | -60.97353 | 35982 ft | 464 kts | 321° |
| 2026-04-25 15:31 | 9.99248 | -61.01373 | 35984 ft | 464 kts | 321° |
| 2026-04-25 15:32 | 10.04329 | -61.05424 | 35981 ft | 464 kts | 321° |
| 2026-04-25 15:32 | 10.09406 | -61.09474 | 35986 ft | 464 kts | 321° |
| 2026-04-25 15:33 | 10.17037 | -61.15564 | 35986 ft | 465 kts | 321° |
| 2026-04-25 15:33 | 10.22136 | -61.19636 | 35986 ft | 466 kts | 320° |
| 2026-04-25 15:34 | 10.27202 | -61.23684 | 35987 ft | 466 kts | 320° |
| 2026-04-25 15:34 | 10.31484 | -61.27106 | 35982 ft | 467 kts | 320° |
| 2026-04-25 15:35 | 10.40003 | -61.33919 | 35988 ft | 469 kts | 320° |
| 2026-04-25 15:36 | 10.47629 | -61.40107 | 35978 ft | 469 kts | 315° |
| 2026-04-25 15:36 | 10.52306 | -61.44710 | 35985 ft | 467 kts | 313° |
| 2026-04-25 15:37 | 10.56882 | -61.49425 | 36006 ft | 468 kts | 313° |
| 2026-04-25 15:37 | 10.61466 | -61.54105 | 35977 ft | 469 kts | 313° |
| 2026-04-25 15:38 | 10.66086 | -61.58767 | 35977 ft | 467 kts | 313° |
| 2026-04-25 15:38 | 10.70704 | -61.63408 | 35976 ft | 466 kts | 313° |
| 2026-04-25 15:39 | 10.75308 | -61.68036 | 35978 ft | 465 kts | 313° |
| 2026-04-25 15:39 | 10.79901 | -61.72656 | 35982 ft | 463 kts | 313° |
| 2026-04-25 15:40 | 10.83704 | -61.76485 | 35984 ft | 463 kts | 313° |
| 2026-04-25 15:40 | 10.89056 | -61.81876 | 35987 ft | 463 kts | 313° |
| 2026-04-25 15:41 | 10.93643 | -61.86498 | 35979 ft | 463 kts | 313° |
| 2026-04-25 15:41 | 10.98226 | -61.91119 | 35978 ft | 464 kts | 313° |
| 2026-04-25 15:42 | 11.02814 | -61.95747 | 35983 ft | 464 kts | 313° |
| 2026-04-25 15:42 | 11.07368 | -62.00342 | 35974 ft | 464 kts | 312° |
| 2026-04-25 15:43 | 11.11959 | -62.04977 | 35980 ft | 464 kts | 312° |
| 2026-04-25 15:43 | 11.16557 | -62.09621 | 35977 ft | 465 kts | 312° |
| 2026-04-25 15:44 | 11.21145 | -62.14258 | 35979 ft | 465 kts | 312° |
| 2026-04-25 15:44 | 11.25741 | -62.18904 | 35975 ft | 465 kts | 312° |
| 2026-04-25 15:45 | 11.30307 | -62.23523 | 35976 ft | 464 kts | 313° |
| 2026-04-25 15:45 | 11.34124 | -62.27385 | 35976 ft | 464 kts | 313° |
| 2026-04-25 15:46 | 11.39466 | -62.32793 | 35975 ft | 463 kts | 312° |
| 2026-04-25 15:46 | 11.44032 | -62.37418 | 35971 ft | 461 kts | 312° |
| 2026-04-25 15:47 | 11.48580 | -62.42027 | 35972 ft | 460 kts | 312° |
| 2026-04-25 15:47 | 11.53116 | -62.46626 | 35974 ft | 459 kts | 312° |
| 2026-04-25 15:48 | 11.57634 | -62.51209 | 35975 ft | 457 kts | 312° |
| 2026-04-25 15:48 | 11.62114 | -62.55756 | 35980 ft | 456 kts | 312° |
| 2026-04-25 15:49 | 11.66616 | -62.60328 | 35972 ft | 456 kts | 312° |
| 2026-04-25 15:49 | 11.71110 | -62.64893 | 35979 ft | 455 kts | 312° |
| 2026-04-25 15:50 | 11.75592 | -62.69449 | 35973 ft | 454 kts | 312° |
| 2026-04-25 15:50 | 11.80073 | -62.74005 | 35975 ft | 454 kts | 312° |
| 2026-04-25 15:51 | 11.83794 | -62.77791 | 35974 ft | 454 kts | 312° |
| 2026-04-25 15:51 | 11.88995 | -62.83085 | 35979 ft | 454 kts | 311° |
| 2026-04-25 15:52 | 11.93473 | -62.87645 | 35976 ft | 454 kts | 311° |
| 2026-04-25 15:52 | 11.97952 | -62.92209 | 35977 ft | 455 kts | 311° |
| 2026-04-25 15:53 | 12.02442 | -62.96786 | 35971 ft | 455 kts | 311° |
| 2026-04-25 15:53 | 12.06924 | -63.01358 | 35977 ft | 456 kts | 311° |
| 2026-04-25 15:54 | 12.11377 | -63.05901 | 35980 ft | 456 kts | 311° |
| 2026-04-25 15:54 | 12.15872 | -63.10490 | 35974 ft | 456 kts | 311° |
| 2026-04-25 15:55 | 12.20375 | -63.15091 | 35984 ft | 457 kts | 312° |
| 2026-04-25 15:55 | 12.24869 | -63.19684 | 35975 ft | 457 kts | 312° |
| 2026-04-25 15:56 | 12.29364 | -63.24279 | 35976 ft | 456 kts | 312° |
| 2026-04-25 15:56 | 12.33850 | -63.28869 | 35977 ft | 456 kts | 312° |
| 2026-04-25 15:57 | 12.38334 | -63.33459 | 35975 ft | 456 kts | 312° |
| 2026-04-25 15:57 | 12.42790 | -63.38023 | 35972 ft | 455 kts | 312° |
| 2026-04-25 15:58 | 12.47276 | -63.42619 | 35968 ft | 455 kts | 311° |
| 2026-04-25 15:58 | 12.51749 | -63.47200 | 35974 ft | 455 kts | 311° |
| 2026-04-25 15:59 | 12.56224 | -63.51788 | 35976 ft | 455 kts | 311° |
| 2026-04-25 15:59 | 12.60705 | -63.56384 | 35974 ft | 456 kts | 311° |
| 2026-04-25 16:00 | 12.63674 | -63.59430 | 35975 ft | 456 kts | 311° |
| 2026-04-25 16:00 | 12.69663 | -63.65580 | 35981 ft | 457 kts | 311° |
| 2026-04-25 16:01 | 12.74163 | -63.70205 | 35975 ft | 458 kts | 311° |
| 2026-04-25 16:01 | 12.78670 | -63.74838 | 35976 ft | 459 kts | 311° |
| 2026-04-25 16:02 | 12.83176 | -63.79475 | 35981 ft | 459 kts | 310° |
| 2026-04-25 16:02 | 12.87645 | -63.84085 | 35971 ft | 458 kts | 310° |
| 2026-04-25 16:03 | 12.92131 | -63.88715 | 35971 ft | 458 kts | 310° |
| 2026-04-25 16:03 | 12.96618 | -63.93348 | 35977 ft | 457 kts | 310° |
| 2026-04-25 16:04 | 13.01097 | -63.97975 | 35978 ft | 456 kts | 310° |
| 2026-04-25 16:04 | 13.05558 | -64.02587 | 35973 ft | 455 kts | 310° |
| 2026-04-25 16:05 | 13.10011 | -64.07193 | 35985 ft | 454 kts | 310° |
| 2026-04-25 16:06 | 13.16675 | -64.14089 | 35971 ft | 453 kts | 310° |
| 2026-04-25 16:06 | 13.21083 | -64.18655 | 35975 ft | 452 kts | 310° |
| 2026-04-25 16:07 | 13.25504 | -64.23237 | 35975 ft | 451 kts | 310° |
| 2026-04-25 16:07 | 13.29913 | -64.27809 | 35973 ft | 450 kts | 310° |
| 2026-04-25 16:08 | 13.33580 | -64.31614 | 35980 ft | 450 kts | 310° |
| 2026-04-25 16:08 | 13.37984 | -64.36184 | 35980 ft | 450 kts | 311° |
| 2026-04-25 16:09 | 13.42418 | -64.40744 | 35979 ft | 451 kts | 311° |
| 2026-04-25 16:09 | 13.46840 | -64.45324 | 35971 ft | 451 kts | 311° |
| 2026-04-25 16:10 | 13.51249 | -64.49923 | 35977 ft | 452 kts | 311° |
| 2026-04-25 16:10 | 13.55647 | -64.54509 | 35966 ft | 453 kts | 310° |
| 2026-04-25 16:11 | 13.60087 | -64.59137 | 35975 ft | 454 kts | 310° |
| 2026-04-25 16:11 | 13.64530 | -64.63770 | 35972 ft | 455 kts | 310° |
| 2026-04-25 16:12 | 13.68989 | -64.68422 | 35973 ft | 456 kts | 310° |
| 2026-04-25 16:12 | 13.73416 | -64.73042 | 35972 ft | 456 kts | 310° |
| 2026-04-25 16:13 | 13.77877 | -64.77702 | 35969 ft | 457 kts | 310° |
| 2026-04-25 16:13 | 13.82341 | -64.82368 | 35974 ft | 457 kts | 310° |
| 2026-04-25 16:14 | 13.86795 | -64.87025 | 35971 ft | 456 kts | 310° |
| 2026-04-25 16:14 | 13.91217 | -64.91654 | 35981 ft | 456 kts | 309° |
| 2026-04-25 16:15 | 13.95646 | -64.96327 | 35975 ft | 455 kts | 309° |
| 2026-04-25 16:15 | 14.00058 | -65.00996 | 35965 ft | 454 kts | 309° |
| 2026-04-25 16:16 | 14.04463 | -65.05656 | 35976 ft | 454 kts | 309° |
| 2026-04-25 16:16 | 14.08866 | -65.10311 | 35971 ft | 453 kts | 309° |
| 2026-04-25 16:17 | 14.13279 | -65.14943 | 35978 ft | 453 kts | 309° |
| 2026-04-25 16:17 | 14.17697 | -65.19572 | 35976 ft | 452 kts | 309° |
| 2026-04-25 16:18 | 14.22080 | -65.24171 | 35972 ft | 452 kts | 309° |
| 2026-04-25 16:18 | 14.26485 | -65.28800 | 35974 ft | 452 kts | 309° |
| 2026-04-25 16:19 | 14.30887 | -65.33429 | 35982 ft | 452 kts | 309° |
| 2026-04-25 16:19 | 14.35296 | -65.38069 | 35971 ft | 452 kts | 309° |
| 2026-04-25 16:20 | 14.41911 | -65.45034 | 35972 ft | 452 kts | 309° |
| 2026-04-25 16:21 | 14.48481 | -65.51959 | 35973 ft | 452 kts | 309° |
| 2026-04-25 16:21 | 14.52879 | -65.56598 | 35972 ft | 452 kts | 309° |
| 2026-04-25 16:22 | 14.57274 | -65.61236 | 35973 ft | 451 kts | 309° |
| 2026-04-25 16:22 | 14.61660 | -65.65867 | 35973 ft | 451 kts | 309° |
| 2026-04-25 16:23 | 14.66046 | -65.70501 | 35979 ft | 450 kts | 309° |
| 2026-04-25 16:23 | 14.70422 | -65.75129 | 35967 ft | 450 kts | 309° |
| 2026-04-25 16:24 | 14.74764 | -65.79724 | 35968 ft | 449 kts | 309° |
| 2026-04-25 16:24 | 14.79114 | -65.84330 | 35969 ft | 448 kts | 309° |
| 2026-04-25 16:25 | 14.83461 | -65.88937 | 35966 ft | 447 kts | 309° |
| 2026-04-25 16:25 | 14.87803 | -65.93540 | 35970 ft | 446 kts | 309° |
| 2026-04-25 16:26 | 14.92134 | -65.98136 | 35968 ft | 446 kts | 309° |
| 2026-04-25 16:26 | 14.96431 | -66.02697 | 35968 ft | 445 kts | 309° |
| 2026-04-25 16:27 | 15.00752 | -66.07289 | 35971 ft | 446 kts | 309° |
| 2026-04-25 16:27 | 15.05080 | -66.11888 | 35974 ft | 446 kts | 309° |
| 2026-04-25 16:28 | 15.09445 | -66.16470 | 35967 ft | 447 kts | 309° |
| 2026-04-25 16:28 | 15.13830 | -66.21040 | 35967 ft | 447 kts | 309° |
| 2026-04-25 16:29 | 15.18188 | -66.25592 | 35969 ft | 448 kts | 309° |
| 2026-04-25 16:29 | 15.22567 | -66.30176 | 35966 ft | 448 kts | 309° |
| 2026-04-25 16:30 | 15.26239 | -66.34024 | 35965 ft | 448 kts | 309° |
| 2026-04-25 16:30 | 15.31343 | -66.39376 | 35966 ft | 449 kts | 309° |
| 2026-04-25 16:31 | 15.35727 | -66.43975 | 35972 ft | 449 kts | 309° |
| 2026-04-25 16:31 | 15.40113 | -66.48581 | 35976 ft | 449 kts | 308° |
| 2026-04-25 16:32 | 15.44496 | -66.53186 | 35964 ft | 448 kts | 308° |
| 2026-04-25 16:32 | 15.48871 | -66.57785 | 35967 ft | 447 kts | 308° |
| 2026-04-25 16:33 | 15.53237 | -66.62378 | 35962 ft | 446 kts | 308° |
| 2026-04-25 16:33 | 15.57333 | -66.67112 | 35969 ft | 441 kts | 303° |
| 2026-04-25 16:34 | 15.61200 | -66.72031 | 35969 ft | 439 kts | 302° |
| 2026-04-25 16:34 | 15.65052 | -66.76943 | 35969 ft | 439 kts | 303° |
| 2026-04-25 16:35 | 15.68927 | -66.81837 | 35967 ft | 438 kts | 303° |
| 2026-04-25 16:35 | 15.72808 | -66.86715 | 35967 ft | 438 kts | 303° |
| 2026-04-25 16:36 | 15.76696 | -66.91601 | 35984 ft | 438 kts | 303° |
| 2026-04-25 16:36 | 15.80554 | -66.96452 | 35972 ft | 438 kts | 303° |
| 2026-04-25 16:37 | 15.84427 | -67.01326 | 35971 ft | 437 kts | 303° |
| 2026-04-25 16:37 | 15.88301 | -67.06205 | 35959 ft | 437 kts | 303° |
| 2026-04-25 16:38 | 15.92167 | -67.11078 | 35972 ft | 436 kts | 303° |
| 2026-04-25 16:38 | 15.96023 | -67.15941 | 35970 ft | 436 kts | 303° |
| 2026-04-25 16:39 | 15.99851 | -67.20772 | 35968 ft | 435 kts | 303° |
| 2026-04-25 16:39 | 16.03699 | -67.25632 | 35973 ft | 435 kts | 303° |
| 2026-04-25 16:40 | 16.07552 | -67.30501 | 35966 ft | 434 kts | 303° |
| 2026-04-25 16:40 | 16.11383 | -67.35346 | 35967 ft | 433 kts | 303° |
| 2026-04-25 16:41 | 16.15208 | -67.40188 | 35974 ft | 432 kts | 303° |
| 2026-04-25 16:41 | 16.20902 | -67.47398 | 35960 ft | 430 kts | 303° |
| 2026-04-25 16:42 | 16.24690 | -67.52203 | 35964 ft | 428 kts | 303° |
| 2026-04-25 16:42 | 16.28464 | -67.56994 | 35971 ft | 426 kts | 302° |
| 2026-04-25 16:43 | 16.32218 | -67.61767 | 35966 ft | 425 kts | 302° |
| 2026-04-25 16:43 | 16.35933 | -67.66493 | 35967 ft | 424 kts | 302° |
| 2026-04-25 16:44 | 16.39691 | -67.71277 | 35967 ft | 424 kts | 302° |
| 2026-04-25 16:44 | 16.43396 | -67.75996 | 35967 ft | 424 kts | 302° |
| 2026-04-25 16:45 | 16.47140 | -67.80768 | 35966 ft | 424 kts | 302° |
| 2026-04-25 16:45 | 16.50884 | -67.85546 | 35992 ft | 428 kts | 302° |
| 2026-04-25 16:46 | 16.52775 | -67.87960 | 36188 ft | 428 kts | 302° |
| 2026-04-25 16:46 | 16.54659 | -67.90363 | 36429 ft | 427 kts | 302° |
| 2026-04-25 16:46 | 16.56535 | -67.92757 | 36583 ft | 427 kts | 302° |
| 2026-04-25 16:46 | 16.57146 | -67.93539 | 36627 ft | 428 kts | 302° |
| 2026-04-25 16:47 | 16.60285 | -67.97550 | 36876 ft | 429 kts | 302° |
| 2026-04-25 16:47 | 16.62170 | -67.99959 | 37056 ft | 429 kts | 302° |
| 2026-04-25 16:47 | 16.64058 | -68.02371 | 37190 ft | 429 kts | 302° |
| 2026-04-25 16:47 | 16.65947 | -68.04785 | 37334 ft | 430 kts | 302° |
| 2026-04-25 16:48 | 16.67838 | -68.07200 | 37504 ft | 430 kts | 302° |
| 2026-04-25 16:48 | 16.69727 | -68.09615 | 37655 ft | 430 kts | 301° |
| 2026-04-25 16:48 | 16.71617 | -68.12033 | 37799 ft | 430 kts | 301° |
| 2026-04-25 16:48 | 16.73511 | -68.14456 | 37917 ft | 430 kts | 301° |
| 2026-04-25 16:49 | 16.77298 | -68.19307 | 37972 ft | 433 kts | 301° |
| 2026-04-25 16:49 | 16.81097 | -68.24174 | 37970 ft | 431 kts | 301° |
| 2026-04-25 16:50 | 16.84854 | -68.28989 | 37956 ft | 430 kts | 301° |
| 2026-04-25 16:50 | 16.88622 | -68.33822 | 37968 ft | 428 kts | 301° |
| 2026-04-25 16:51 | 16.92368 | -68.38633 | 37964 ft | 426 kts | 301° |
| 2026-04-25 16:51 | 16.94868 | -68.41845 | 37965 ft | 425 kts | 301° |
| 2026-04-25 16:52 | 16.99819 | -68.48211 | 37961 ft | 424 kts | 301° |
| 2026-04-25 16:52 | 17.03531 | -68.52989 | 37968 ft | 423 kts | 301° |
| 2026-04-25 16:53 | 17.09097 | -68.60160 | 37966 ft | 424 kts | 301° |
| 2026-04-25 16:54 | 17.12813 | -68.64950 | 37968 ft | 424 kts | 301° |
| 2026-04-25 16:54 | 17.16518 | -68.69730 | 37954 ft | 425 kts | 301° |
| 2026-04-25 16:55 | 17.20255 | -68.74554 | 37968 ft | 426 kts | 301° |
| 2026-04-25 16:55 | 17.23991 | -68.79380 | 37969 ft | 427 kts | 301° |
| 2026-04-25 16:56 | 17.27107 | -68.83407 | 37982 ft | 426 kts | 301° |
| 2026-04-25 16:56 | 17.31409 | -68.88967 | 37960 ft | 419 kts | 301° |
| 2026-04-25 16:57 | 17.34444 | -68.92897 | 37958 ft | 415 kts | 301° |
| 2026-04-25 16:57 | 17.38056 | -68.97579 | 37964 ft | 413 kts | 301° |
| 2026-04-25 16:58 | 17.41691 | -69.02283 | 37975 ft | 419 kts | 302° |
| 2026-04-25 16:58 | 17.45574 | -69.06913 | 37968 ft | 426 kts | 304° |
| 2026-04-25 16:59 | 17.49557 | -69.11543 | 37971 ft | 429 kts | 304° |
| 2026-04-25 16:59 | 17.53545 | -69.16229 | 37968 ft | 432 kts | 303° |
| 2026-04-25 17:00 | 17.57489 | -69.20890 | 37955 ft | 425 kts | 303° |
| 2026-04-25 17:00 | 17.61367 | -69.25486 | 37959 ft | 418 kts | 303° |
| 2026-04-25 17:01 | 17.65208 | -69.30045 | 37986 ft | 417 kts | 303° |
| 2026-04-25 17:01 | 17.68965 | -69.34666 | 37969 ft | 414 kts | 301° |
| 2026-04-25 17:02 | 17.72484 | -69.39384 | 37961 ft | 413 kts | 300° |
| 2026-04-25 17:02 | 17.76036 | -69.44129 | 37963 ft | 413 kts | 301° |
| 2026-04-25 17:03 | 17.79622 | -69.48868 | 37963 ft | 414 kts | 301° |
| 2026-04-25 17:03 | 17.83214 | -69.53608 | 37962 ft | 415 kts | 301° |
| 2026-04-25 17:04 | 17.86815 | -69.58365 | 37961 ft | 417 kts | 301° |
| 2026-04-25 17:04 | 17.90408 | -69.63118 | 37959 ft | 418 kts | 301° |
| 2026-04-25 17:05 | 17.94028 | -69.67909 | 37959 ft | 419 kts | 301° |
| 2026-04-25 17:05 | 17.99470 | -69.75136 | 37956 ft | 420 kts | 300° |
| 2026-04-25 17:06 | 18.02861 | -69.80067 | 37983 ft | 419 kts | 298° |
| 2026-04-25 17:06 | 18.06226 | -69.85075 | 37962 ft | 419 kts | 298° |
| 2026-04-25 17:07 | 18.09614 | -69.90057 | 37951 ft | 418 kts | 298° |
| 2026-04-25 17:07 | 18.13001 | -69.95014 | 37952 ft | 416 kts | 298° |
| 2026-04-25 17:08 | 18.16437 | -69.99849 | 37949 ft | 416 kts | 302° |
| 2026-04-25 17:08 | 18.20144 | -70.04519 | 37948 ft | 415 kts | 303° |
| 2026-04-25 17:09 | 18.23860 | -70.09154 | 37949 ft | 413 kts | 302° |
| 2026-04-25 17:09 | 18.27533 | -70.13782 | 37950 ft | 411 kts | 302° |
| 2026-04-25 17:10 | 18.31187 | -70.18413 | 37953 ft | 410 kts | 302° |
| 2026-04-25 17:10 | 18.34815 | -70.23019 | 37960 ft | 411 kts | 302° |
| 2026-04-25 17:11 | 18.38465 | -70.27656 | 37960 ft | 412 kts | 302° |
| 2026-04-25 17:11 | 18.42124 | -70.32305 | 37979 ft | 412 kts | 303° |
| 2026-04-25 17:12 | 18.45791 | -70.36965 | 37937 ft | 413 kts | 303° |
| 2026-04-25 17:12 | 18.49393 | -70.41619 | 37977 ft | 406 kts | 301° |
| 2026-04-25 17:13 | 18.52278 | -70.45513 | 37982 ft | 405 kts | 301° |
| 2026-04-25 17:13 | 18.56369 | -70.51007 | 37968 ft | 409 kts | 301° |
| 2026-04-25 17:14 | 18.59892 | -70.55737 | 37978 ft | 412 kts | 302° |
| 2026-04-25 17:14 | 18.63440 | -70.60494 | 37956 ft | 414 kts | 302° |
| 2026-04-25 17:15 | 18.66987 | -70.65261 | 37982 ft | 417 kts | 302° |
| 2026-04-25 17:15 | 18.70575 | -70.70098 | 37972 ft | 419 kts | 302° |
| 2026-04-25 17:16 | 18.74174 | -70.74938 | 37973 ft | 420 kts | 302° |
| 2026-04-25 17:16 | 18.77782 | -70.79801 | 38013 ft | 419 kts | 302° |
| 2026-04-25 17:17 | 18.81348 | -70.84603 | 37993 ft | 418 kts | 302° |
| 2026-04-25 17:17 | 18.84923 | -70.89427 | 37987 ft | 416 kts | 302° |
| 2026-04-25 17:18 | 18.88470 | -70.94236 | 37975 ft | 412 kts | 302° |
| 2026-04-25 17:18 | 18.91980 | -70.98965 | 37994 ft | 407 kts | 302° |
| 2026-04-25 17:19 | 18.95462 | -71.03663 | 37976 ft | 405 kts | 302° |
| 2026-04-25 17:19 | 18.98920 | -71.08345 | 37983 ft | 403 kts | 302° |
| 2026-04-25 17:20 | 19.02392 | -71.13048 | 37993 ft | 409 kts | 302° |
| 2026-04-25 17:20 | 19.05906 | -71.17823 | 37984 ft | 414 kts | 302° |
| 2026-04-25 17:21 | 19.09437 | -71.22619 | 37972 ft | 416 kts | 302° |
| 2026-04-25 17:21 | 19.12992 | -71.27437 | 37963 ft | 413 kts | 302° |
| 2026-04-25 17:22 | 19.15909 | -71.31393 | 37961 ft | 407 kts | 301° |
| 2026-04-25 17:22 | 19.19944 | -71.36870 | 37969 ft | 401 kts | 301° |
| 2026-04-25 17:23 | 19.23348 | -71.41516 | 37909 ft | 398 kts | 301° |
| 2026-04-25 17:23 | 19.26761 | -71.46162 | 37971 ft | 402 kts | 301° |
| 2026-04-25 17:24 | 19.30182 | -71.50841 | 37971 ft | 407 kts | 301° |
| 2026-04-25 17:24 | 19.33682 | -71.55612 | 37950 ft | 413 kts | 301° |
| 2026-04-25 17:25 | 19.37203 | -71.60416 | 37930 ft | 410 kts | 301° |
| 2026-04-25 17:25 | 19.40668 | -71.65139 | 37935 ft | 403 kts | 301° |
| 2026-04-25 17:26 | 19.44096 | -71.69822 | 37930 ft | 401 kts | 301° |
| 2026-04-25 17:26 | 19.47546 | -71.74475 | 37925 ft | 400 kts | 302° |
| 2026-04-25 17:27 | 19.50991 | -71.79119 | 37926 ft | 400 kts | 301° |
| 2026-04-25 17:27 | 19.53267 | -71.82192 | 37959 ft | 400 kts | 301° |
| 2026-04-25 17:28 | 19.57852 | -71.88394 | 37922 ft | 402 kts | 301° |
| 2026-04-25 17:28 | 19.61298 | -71.93061 | 37920 ft | 402 kts | 301° |
| 2026-04-25 17:29 | 19.64743 | -71.97729 | 37923 ft | 402 kts | 301° |
| 2026-04-25 17:29 | 19.68064 | -72.02487 | 37917 ft | 400 kts | 300° |
| 2026-04-25 17:30 | 19.71330 | -72.07284 | 37919 ft | 400 kts | 300° |
| 2026-04-25 17:30 | 19.74578 | -72.12040 | 37930 ft | 401 kts | 300° |
| 2026-04-25 17:31 | 19.77861 | -72.16833 | 37919 ft | 401 kts | 300° |
| 2026-04-25 17:31 | 19.81142 | -72.21616 | 37943 ft | 400 kts | 300° |
| 2026-04-25 17:32 | 19.84423 | -72.26403 | 37948 ft | 400 kts | 300° |
| 2026-04-25 17:32 | 19.87696 | -72.31182 | 37953 ft | 400 kts | 300° |
| 2026-04-25 17:33 | 19.90971 | -72.35969 | 37972 ft | 400 kts | 300° |
| 2026-04-25 17:33 | 19.94248 | -72.40761 | 37951 ft | 400 kts | 300° |
| 2026-04-25 17:34 | 19.97499 | -72.45518 | 37940 ft | 398 kts | 300° |
| 2026-04-25 17:34 | 20.00745 | -72.50273 | 37941 ft | 395 kts | 300° |
| 2026-04-25 17:35 | 20.03963 | -72.54993 | 37929 ft | 393 kts | 300° |
| 2026-04-25 17:35 | 20.07160 | -72.59685 | 37947 ft | 391 kts | 300° |
| 2026-04-25 17:36 | 20.10355 | -72.64354 | 37945 ft | 391 kts | 302° |
| 2026-04-25 17:36 | 20.13937 | -72.68740 | 37932 ft | 393 kts | 305° |
| 2026-04-25 17:37 | 20.17564 | -72.73051 | 37951 ft | 393 kts | 305° |
| 2026-04-25 17:37 | 20.21222 | -72.77429 | 37949 ft | 394 kts | 305° |
| 2026-04-25 17:38 | 20.23632 | -72.80326 | 37947 ft | 395 kts | 305° |
| 2026-04-25 17:38 | 20.28488 | -72.86178 | 37988 ft | 396 kts | 304° |
| 2026-04-25 17:39 | 20.32148 | -72.90592 | 37951 ft | 398 kts | 304° |
| 2026-04-25 17:39 | 20.35818 | -72.95021 | 37939 ft | 398 kts | 304° |
| 2026-04-25 17:40 | 20.39481 | -72.99445 | 37940 ft | 398 kts | 304° |
| 2026-04-25 17:40 | 20.43122 | -73.03832 | 37941 ft | 397 kts | 305° |
| 2026-04-25 17:41 | 20.46783 | -73.08223 | 37944 ft | 395 kts | 305° |
| 2026-04-25 17:41 | 20.50433 | -73.12606 | 37945 ft | 394 kts | 305° |
| 2026-04-25 17:42 | 20.54065 | -73.16973 | 37941 ft | 393 kts | 305° |
| 2026-04-25 17:42 | 20.57685 | -73.21331 | 37941 ft | 392 kts | 304° |
| 2026-04-25 17:43 | 20.61303 | -73.25691 | 37938 ft | 391 kts | 304° |
| 2026-04-25 17:43 | 20.64906 | -73.30037 | 37939 ft | 391 kts | 304° |
| 2026-04-25 17:44 | 20.68482 | -73.34353 | 37944 ft | 391 kts | 305° |
| 2026-04-25 17:44 | 20.72090 | -73.38710 | 37944 ft | 391 kts | 305° |
| 2026-04-25 17:45 | 20.74477 | -73.41595 | 37937 ft | 391 kts | 305° |
| 2026-04-25 17:45 | 20.79294 | -73.47421 | 37941 ft | 391 kts | 305° |
| 2026-04-25 17:46 | 20.82292 | -73.51051 | 37942 ft | 392 kts | 305° |
| 2026-04-25 17:46 | 20.85903 | -73.55426 | 37941 ft | 393 kts | 305° |
| 2026-04-25 17:47 | 20.89521 | -73.59812 | 37941 ft | 393 kts | 305° |
| 2026-04-25 17:47 | 20.93735 | -73.64926 | 37941 ft | 394 kts | 305° |
| 2026-04-25 17:48 | 20.98608 | -73.70798 | 37937 ft | 395 kts | 306° |
| 2026-04-25 17:49 | 21.02279 | -73.75133 | 37948 ft | 396 kts | 305° |
| 2026-04-25 17:49 | 21.05975 | -73.79498 | 37944 ft | 394 kts | 305° |
| 2026-04-25 17:50 | 21.09640 | -73.83837 | 37943 ft | 392 kts | 305° |
| 2026-04-25 17:50 | 21.13285 | -73.88162 | 37945 ft | 389 kts | 305° |
| 2026-04-25 17:51 | 21.16907 | -73.92465 | 37936 ft | 387 kts | 305° |
| 2026-04-25 17:51 | 21.20482 | -73.96717 | 37934 ft | 386 kts | 305° |
| 2026-04-25 17:52 | 21.24071 | -74.00989 | 37949 ft | 385 kts | 305° |
| 2026-04-25 17:52 | 21.27652 | -74.05254 | 37941 ft | 384 kts | 305° |
| 2026-04-25 17:53 | 21.31225 | -74.09514 | 37937 ft | 384 kts | 305° |
| 2026-04-25 17:53 | 21.34779 | -74.13755 | 37939 ft | 385 kts | 305° |
| 2026-04-25 17:54 | 21.38372 | -74.18044 | 37952 ft | 386 kts | 305° |
| 2026-04-25 17:54 | 21.41971 | -74.22345 | 37944 ft | 387 kts | 305° |
| 2026-04-25 17:55 | 21.45547 | -74.26621 | 37941 ft | 387 kts | 305° |
| 2026-04-25 17:55 | 21.49146 | -74.30927 | 37936 ft | 387 kts | 305° |
| 2026-04-25 17:56 | 21.52745 | -74.35237 | 37940 ft | 388 kts | 305° |
| 2026-04-25 17:56 | 21.56347 | -74.39553 | 37942 ft | 387 kts | 305° |
| 2026-04-25 17:57 | 21.59946 | -74.43870 | 37936 ft | 387 kts | 305° |
| 2026-04-25 17:57 | 21.63540 | -74.48185 | 37935 ft | 387 kts | 305° |
| 2026-04-25 17:58 | 21.67104 | -74.52468 | 37938 ft | 386 kts | 305° |
| 2026-04-25 17:58 | 21.70687 | -74.56775 | 37939 ft | 386 kts | 305° |
| 2026-04-25 17:59 | 21.74260 | -74.61075 | 37954 ft | 386 kts | 304° |
| 2026-04-25 17:59 | 21.77832 | -74.65377 | 37939 ft | 385 kts | 304° |
| 2026-04-25 18:00 | 21.81395 | -74.69673 | 37939 ft | 384 kts | 304° |
| 2026-04-25 18:00 | 21.84929 | -74.73934 | 37942 ft | 383 kts | 304° |
| 2026-04-25 18:01 | 21.88472 | -74.78213 | 37942 ft | 382 kts | 304° |
| 2026-04-25 18:01 | 21.92012 | -74.82491 | 37939 ft | 382 kts | 304° |
| 2026-04-25 18:02 | 21.95546 | -74.86765 | 37937 ft | 381 kts | 304° |
| 2026-04-25 18:02 | 21.99072 | -74.91034 | 37937 ft | 381 kts | 304° |
| 2026-04-25 18:03 | 22.02581 | -74.95285 | 37940 ft | 381 kts | 304° |
| 2026-04-25 18:03 | 22.06109 | -74.99563 | 37940 ft | 381 kts | 304° |
| 2026-04-25 18:04 | 22.09639 | -75.03845 | 37976 ft | 382 kts | 304° |
| 2026-04-25 18:04 | 22.13140 | -75.08161 | 37943 ft | 382 kts | 303° |
| 2026-04-25 18:05 | 22.16568 | -75.12533 | 37942 ft | 381 kts | 303° |
| 2026-04-25 18:05 | 22.19985 | -75.16907 | 37943 ft | 381 kts | 303° |
| 2026-04-25 18:06 | 22.23408 | -75.21280 | 37943 ft | 381 kts | 303° |
| 2026-04-25 18:06 | 22.26803 | -75.25613 | 37944 ft | 380 kts | 303° |
| 2026-04-25 18:07 | 22.30214 | -75.29966 | 37945 ft | 380 kts | 303° |
| 2026-04-25 18:07 | 22.33627 | -75.34326 | 37945 ft | 379 kts | 303° |
| 2026-04-25 18:08 | 22.37021 | -75.38664 | 37944 ft | 379 kts | 303° |
| 2026-04-25 18:08 | 22.40422 | -75.43016 | 37954 ft | 379 kts | 303° |
| 2026-04-25 18:09 | 22.43836 | -75.47387 | 37949 ft | 379 kts | 303° |
| 2026-04-25 18:09 | 22.47214 | -75.51717 | 37951 ft | 379 kts | 303° |
| 2026-04-25 18:10 | 22.50618 | -75.56084 | 37939 ft | 379 kts | 303° |
| 2026-04-25 18:10 | 22.54016 | -75.60445 | 37942 ft | 379 kts | 303° |
| 2026-04-25 18:11 | 22.57409 | -75.64804 | 37948 ft | 378 kts | 303° |
| 2026-04-25 18:11 | 22.60802 | -75.69167 | 37944 ft | 378 kts | 303° |
| 2026-04-25 18:12 | 22.64187 | -75.73523 | 37948 ft | 378 kts | 303° |
| 2026-04-25 18:12 | 22.67550 | -75.77855 | 37948 ft | 378 kts | 303° |
| 2026-04-25 18:13 | 22.70933 | -75.82215 | 37946 ft | 377 kts | 303° |
| 2026-04-25 18:13 | 22.74313 | -75.86576 | 37948 ft | 377 kts | 303° |
| 2026-04-25 18:14 | 22.79367 | -75.93105 | 37948 ft | 377 kts | 303° |
| 2026-04-25 18:14 | 22.82745 | -75.97472 | 37955 ft | 378 kts | 303° |
| 2026-04-25 18:15 | 22.86108 | -76.01825 | 37945 ft | 378 kts | 303° |
| 2026-04-25 18:15 | 22.89491 | -76.06206 | 37948 ft | 378 kts | 303° |
| 2026-04-25 18:16 | 22.92875 | -76.10592 | 37949 ft | 379 kts | 303° |
| 2026-04-25 18:17 | 22.97951 | -76.17178 | 37953 ft | 379 kts | 303° |
| 2026-04-25 18:17 | 23.01310 | -76.21542 | 37947 ft | 379 kts | 303° |
| 2026-04-25 18:18 | 23.04695 | -76.25942 | 37951 ft | 379 kts | 303° |
| 2026-04-25 18:18 | 23.08074 | -76.30339 | 37950 ft | 379 kts | 303° |
| 2026-04-25 18:19 | 23.11449 | -76.34734 | 37948 ft | 379 kts | 303° |
| 2026-04-25 18:19 | 23.14826 | -76.39136 | 37947 ft | 379 kts | 303° |
| 2026-04-25 18:20 | 23.18203 | -76.43544 | 37956 ft | 380 kts | 303° |
| 2026-04-25 18:20 | 23.21573 | -76.47944 | 37949 ft | 381 kts | 303° |
| 2026-04-25 18:21 | 23.24973 | -76.52388 | 37956 ft | 382 kts | 303° |
| 2026-04-25 18:21 | 23.28376 | -76.56839 | 37950 ft | 383 kts | 303° |
| 2026-04-25 18:22 | 23.31790 | -76.61309 | 37946 ft | 384 kts | 303° |
| 2026-04-25 18:22 | 23.35209 | -76.65789 | 37961 ft | 385 kts | 303° |
| 2026-04-25 18:23 | 23.38630 | -76.70275 | 37953 ft | 385 kts | 303° |
| 2026-04-25 18:23 | 23.42048 | -76.74763 | 37958 ft | 385 kts | 303° |
| 2026-04-25 18:24 | 23.45449 | -76.79232 | 37957 ft | 385 kts | 303° |
| 2026-04-25 18:24 | 23.48866 | -76.83725 | 37952 ft | 385 kts | 303° |
| 2026-04-25 18:25 | 23.52283 | -76.88220 | 37967 ft | 385 kts | 303° |
| 2026-04-25 18:25 | 23.55704 | -76.92714 | 37957 ft | 386 kts | 303° |
| 2026-04-25 18:26 | 23.59137 | -76.97224 | 37962 ft | 386 kts | 303° |
| 2026-04-25 18:26 | 23.62570 | -77.01740 | 37959 ft | 387 kts | 303° |
| 2026-04-25 18:27 | 23.66005 | -77.06264 | 37954 ft | 387 kts | 303° |
| 2026-04-25 18:27 | 23.69423 | -77.10769 | 37957 ft | 388 kts | 303° |
| 2026-04-25 18:28 | 23.72862 | -77.15306 | 37960 ft | 388 kts | 303° |
| 2026-04-25 18:28 | 23.76306 | -77.19855 | 37955 ft | 389 kts | 303° |
| 2026-04-25 18:29 | 23.81468 | -77.26680 | 37959 ft | 389 kts | 303° |
| 2026-04-25 18:30 | 23.88360 | -77.35806 | 37965 ft | 390 kts | 304° |
| 2026-04-25 18:30 | 23.91813 | -77.40386 | 37958 ft | 390 kts | 304° |
| 2026-04-25 18:31 | 23.95265 | -77.44969 | 37957 ft | 390 kts | 304° |
| 2026-04-25 18:31 | 23.98692 | -77.49522 | 37957 ft | 390 kts | 304° |
| 2026-04-25 18:32 | 24.02146 | -77.54116 | 37959 ft | 391 kts | 304° |
| 2026-04-25 18:32 | 24.05601 | -77.58715 | 37959 ft | 391 kts | 304° |
| 2026-04-25 18:33 | 24.09053 | -77.63314 | 37962 ft | 391 kts | 304° |
| 2026-04-25 18:33 | 24.12488 | -77.67894 | 37958 ft | 391 kts | 304° |
| 2026-04-25 18:34 | 24.15940 | -77.72502 | 37959 ft | 391 kts | 304° |
| 2026-04-25 18:34 | 24.19386 | -77.77107 | 37960 ft | 391 kts | 304° |
| 2026-04-25 18:35 | 24.22251 | -77.80939 | 37960 ft | 391 kts | 304° |
| 2026-04-25 18:35 | 24.25693 | -77.85546 | 37962 ft | 390 kts | 304° |
| 2026-04-25 18:36 | 24.28917 | -77.90295 | 37966 ft | 387 kts | 300° |
| 2026-04-25 18:36 | 24.31914 | -77.95200 | 37957 ft | 386 kts | 299° |
| 2026-04-25 18:37 | 24.34879 | -78.00073 | 37958 ft | 386 kts | 299° |
| 2026-04-25 18:37 | 24.37872 | -78.04970 | 37959 ft | 386 kts | 300° |
| 2026-04-25 18:38 | 24.40871 | -78.09866 | 37962 ft | 387 kts | 300° |
| 2026-04-25 18:38 | 24.43876 | -78.14772 | 37962 ft | 387 kts | 300° |
| 2026-04-25 18:39 | 24.46881 | -78.19682 | 37959 ft | 387 kts | 300° |
| 2026-04-25 18:39 | 24.49882 | -78.24590 | 37959 ft | 387 kts | 300° |
| 2026-04-25 18:40 | 24.52868 | -78.29478 | 37962 ft | 388 kts | 300° |
| 2026-04-25 18:40 | 24.55871 | -78.34398 | 37991 ft | 388 kts | 300° |
| 2026-04-25 18:41 | 24.58888 | -78.39348 | 37919 ft | 390 kts | 300° |
| 2026-04-25 18:41 | 24.60411 | -78.41849 | 37596 ft | 392 kts | 300° |
| 2026-04-25 18:41 | 24.61917 | -78.44321 | 37194 ft | 387 kts | 300° |
| 2026-04-25 18:42 | 24.63404 | -78.46761 | 36866 ft | 381 kts | 300° |
| 2026-04-25 18:42 | 24.64379 | -78.48362 | 36589 ft | 379 kts | 300° |
| 2026-04-25 18:42 | 24.66324 | -78.51560 | 36087 ft | 374 kts | 300° |
| 2026-04-25 18:42 | 24.67764 | -78.53928 | 35701 ft | 370 kts | 300° |
| 2026-04-25 18:43 | 24.69189 | -78.56275 | 35313 ft | 368 kts | 300° |
| 2026-04-25 18:43 | 24.70601 | -78.58601 | 34934 ft | 365 kts | 301° |
| 2026-04-25 18:43 | 24.72007 | -78.60920 | 34557 ft | 363 kts | 301° |
| 2026-04-25 18:43 | 24.73390 | -78.63201 | 34180 ft | 360 kts | 301° |
| 2026-04-25 18:44 | 24.74778 | -78.65491 | 33771 ft | 359 kts | 301° |
| 2026-04-25 18:44 | 24.76158 | -78.67769 | 33371 ft | 356 kts | 301° |
| 2026-04-25 18:44 | 24.77529 | -78.70033 | 32977 ft | 354 kts | 301° |
| 2026-04-25 18:44 | 24.78889 | -78.72279 | 32611 ft | 351 kts | 301° |
| 2026-04-25 18:45 | 24.80238 | -78.74508 | 32254 ft | 348 kts | 301° |
| 2026-04-25 18:45 | 24.81574 | -78.76717 | 31905 ft | 345 kts | 301° |
| 2026-04-25 18:45 | 24.82902 | -78.78913 | 31554 ft | 343 kts | 301° |
| 2026-04-25 18:45 | 24.84198 | -78.81058 | 31211 ft | 340 kts | 300° |
| 2026-04-25 18:46 | 24.85505 | -78.83222 | 30866 ft | 338 kts | 300° |
| 2026-04-25 18:46 | 24.86803 | -78.85373 | 30532 ft | 336 kts | 300° |
| 2026-04-25 18:46 | 24.88094 | -78.87512 | 30195 ft | 334 kts | 300° |
| 2026-04-25 18:46 | 24.89372 | -78.89631 | 29828 ft | 332 kts | 300° |
| 2026-04-25 18:47 | 24.90647 | -78.91747 | 29445 ft | 329 kts | 300° |
| 2026-04-25 18:47 | 24.91908 | -78.93838 | 29119 ft | 326 kts | 301° |
| 2026-04-25 18:47 | 24.93156 | -78.95910 | 28733 ft | 324 kts | 301° |
| 2026-04-25 18:47 | 24.94397 | -78.97971 | 28388 ft | 321 kts | 301° |
| 2026-04-25 18:48 | 24.95630 | -79.00021 | 27987 ft | 321 kts | 301° |
| 2026-04-25 18:48 | 24.96868 | -79.02080 | 27659 ft | 318 kts | 301° |
| 2026-04-25 18:48 | 24.98087 | -79.04108 | 27326 ft | 317 kts | 301° |
| 2026-04-25 18:48 | 24.99299 | -79.06124 | 27031 ft | 314 kts | 302° |
| 2026-04-25 18:49 | 25.00511 | -79.08142 | 26692 ft | 318 kts | 302° |
| 2026-04-25 18:49 | 25.01754 | -79.10213 | 26377 ft | 330 kts | 302° |
| 2026-04-25 18:49 | 25.03033 | -79.12347 | 26025 ft | 336 kts | 302° |
| 2026-04-25 18:49 | 25.04307 | -79.14470 | 25665 ft | 334 kts | 302° |
| 2026-04-25 18:50 | 25.05585 | -79.16600 | 25313 ft | 332 kts | 303° |
| 2026-04-25 18:50 | 25.06856 | -79.18720 | 24967 ft | 330 kts | 303° |
| 2026-04-25 18:50 | 25.08118 | -79.20825 | 24624 ft | 328 kts | 303° |
| 2026-04-25 18:50 | 25.09374 | -79.22922 | 24291 ft | 327 kts | 303° |
| 2026-04-25 18:51 | 25.10624 | -79.25009 | 23940 ft | 325 kts | 303° |
| 2026-04-25 18:51 | 25.11468 | -79.26420 | 23697 ft | 325 kts | 303° |
| 2026-04-25 18:51 | 25.13112 | -79.29168 | 23200 ft | 323 kts | 303° |
| 2026-04-25 18:51 | 25.14350 | -79.31237 | 22815 ft | 321 kts | 303° |
| 2026-04-25 18:52 | 25.15579 | -79.33294 | 22476 ft | 319 kts | 303° |
| 2026-04-25 18:52 | 25.16797 | -79.35334 | 22135 ft | 316 kts | 303° |
| 2026-04-25 18:52 | 25.18003 | -79.37353 | 21802 ft | 314 kts | 303° |
| 2026-04-25 18:52 | 25.19201 | -79.39359 | 21473 ft | 311 kts | 303° |
| 2026-04-25 18:53 | 25.20389 | -79.41351 | 21153 ft | 309 kts | 303° |
| 2026-04-25 18:53 | 25.21566 | -79.43325 | 20826 ft | 307 kts | 303° |
| 2026-04-25 18:53 | 25.22736 | -79.45288 | 20508 ft | 305 kts | 303° |
| 2026-04-25 18:53 | 25.23898 | -79.47237 | 20192 ft | 303 kts | 303° |
| 2026-04-25 18:54 | 25.26202 | -79.51106 | 19558 ft | 300 kts | 303° |
| 2026-04-25 18:54 | 25.27347 | -79.53030 | 19255 ft | 298 kts | 303° |
| 2026-04-25 18:54 | 25.28485 | -79.54943 | 18932 ft | 297 kts | 302° |
| 2026-04-25 18:55 | 25.29619 | -79.56850 | 18618 ft | 296 kts | 302° |
| 2026-04-25 18:55 | 25.30734 | -79.58726 | 18312 ft | 295 kts | 302° |
| 2026-04-25 18:55 | 25.31860 | -79.60622 | 17952 ft | 295 kts | 302° |
| 2026-04-25 18:55 | 25.32985 | -79.62515 | 17617 ft | 293 kts | 302° |
| 2026-04-25 18:56 | 25.34100 | -79.64394 | 17287 ft | 292 kts | 302° |
| 2026-04-25 18:56 | 25.35210 | -79.66265 | 16972 ft | 290 kts | 302° |
| 2026-04-25 18:56 | 25.36315 | -79.68127 | 16658 ft | 288 kts | 302° |
| 2026-04-25 18:56 | 25.37408 | -79.69970 | 16350 ft | 286 kts | 302° |
| 2026-04-25 18:57 | 25.38497 | -79.71807 | 16045 ft | 285 kts | 302° |
| 2026-04-25 18:57 | 25.39604 | -79.73627 | 15752 ft | 285 kts | 304° |
| 2026-04-25 18:57 | 25.40758 | -79.75423 | 15461 ft | 288 kts | 304° |
| 2026-04-25 18:57 | 25.41531 | -79.76613 | 15276 ft | 289 kts | 304° |
| 2026-04-25 18:58 | 25.43104 | -79.79040 | 14882 ft | 292 kts | 304° |
| 2026-04-25 18:58 | 25.45471 | -79.82715 | 14277 ft | 296 kts | 304° |
| 2026-04-25 18:58 | 25.46661 | -79.84569 | 13966 ft | 295 kts | 304° |
| 2026-04-25 18:59 | 25.49020 | -79.88249 | 13305 ft | 291 kts | 304° |
| 2026-04-25 18:59 | 25.51354 | -79.91894 | 12673 ft | 287 kts | 304° |
| 2026-04-25 19:00 | 25.53645 | -79.95475 | 12077 ft | 283 kts | 304° |
| 2026-04-25 19:00 | 25.54765 | -79.97226 | 11782 ft | 281 kts | 304° |
| 2026-04-25 19:01 | 25.57008 | -80.00734 | 11207 ft | 277 kts | 304° |
| 2026-04-25 19:01 | 25.58120 | -80.02473 | 10921 ft | 276 kts | 304° |
| 2026-04-25 19:01 | 25.59226 | -80.04206 | 10636 ft | 275 kts | 304° |
| 2026-04-25 19:01 | 25.60328 | -80.05932 | 10348 ft | 274 kts | 304° |
| 2026-04-25 19:02 | 25.62516 | -80.09362 | 9771 ft | 273 kts | 304° |
| 2026-04-25 19:02 | 25.63612 | -80.11079 | 9462 ft | 272 kts | 304° |
| 2026-04-25 19:02 | 25.64700 | -80.12785 | 9161 ft | 270 kts | 304° |
| 2026-04-25 19:03 | 25.66022 | -80.15105 | 8805 ft | 267 kts | 295° |
| 2026-04-25 19:03 | 25.67297 | -80.18206 | 8411 ft | 261 kts | 294° |
| 2026-04-25 19:03 | 25.68031 | -80.19988 | 8173 ft | 260 kts | 295° |
| 2026-04-25 19:04 | 25.69564 | -80.23651 | 7688 ft | 267 kts | 295° |
| 2026-04-25 19:04 | 25.70352 | -80.25514 | 7419 ft | 267 kts | 295° |
| 2026-04-25 19:05 | 25.71212 | -80.29448 | 6904 ft | 267 kts | 267° |
| 2026-04-25 19:05 | 25.70991 | -80.33576 | 6336 ft | 267 kts | 266° |
| 2026-04-25 19:05 | 25.70886 | -80.35626 | 6049 ft | 266 kts | 267° |
| 2026-04-25 19:06 | 25.70785 | -80.37669 | 5770 ft | 265 kts | 267° |
| 2026-04-25 19:06 | 25.70589 | -80.41725 | 5235 ft | 262 kts | 266° |
| 2026-04-25 19:06 | 25.70491 | -80.43742 | 4938 ft | 262 kts | 266° |
| 2026-04-25 19:07 | 25.70167 | -80.47829 | 4233 ft | 265 kts | 264° |
| 2026-04-25 19:07 | 25.69982 | -80.49839 | 4026 ft | 258 kts | 263° |
| 2026-04-25 19:08 | 25.69759 | -80.53663 | 3830 ft | 241 kts | 284° |
| 2026-04-25 19:08 | 25.70610 | -80.55179 | 3836 ft | 234 kts | 324° |
| 2026-04-25 19:09 | 25.75307 | -80.55957 | 3628 ft | 231 kts | 27° |
| 2026-04-25 19:09 | 25.76150 | -80.55287 | 3623 ft | 223 kts | 51° |
| 2026-04-25 19:09 | 25.77825 | -80.51892 | 3394 ft | 217 kts | 94° |
| 2026-04-25 19:10 | 25.77786 | -80.50206 | 3229 ft | 222 kts | 86° |
| 2026-04-25 19:10 | 25.77927 | -80.48499 | 3044 ft | 222 kts | 87° |
| 2026-04-25 19:10 | 25.78003 | -80.46777 | 2759 ft | 223 kts | 89° |
| 2026-04-25 19:10 | 25.78067 | -80.45060 | 2446 ft | 221 kts | 90° |
| 2026-04-25 19:11 | 25.78133 | -80.43388 | 2172 ft | 210 kts | 89° |
| 2026-04-25 19:11 | 25.78194 | -80.41857 | 1932 ft | 190 kts | 88° |
| 2026-04-25 19:11 | 25.78252 | -80.40418 | 1662 ft | 181 kts | 89° |
| 2026-04-25 19:11 | 25.78308 | -80.39046 | 1402 ft | 173 kts | 90° |
| 2026-04-25 19:12 | 25.78359 | -80.37755 | 1194 ft | 159 kts | 90° |
| 2026-04-25 19:12 | 25.78406 | -80.36580 | 988 ft | 147 kts | 88° |
| 2026-04-25 19:12 | 25.78452 | -80.35454 | 828 ft | 145 kts | 91° |
| 2026-04-25 19:12 | 25.78497 | -80.34328 | 632 ft | 147 kts | 90° |
| 2026-04-25 19:13 | 25.78553 | -80.33200 | 413 ft | 147 kts | 91° |
| 2026-04-25 19:13 | 25.78585 | -80.32039 | 250 ft | 153 kts | 89° |
| 2026-04-25 19:13 | 25.78644 | -80.30883 | 37 ft | 145 kts | 91° |
| 2026-04-25 19:13 | 25.78682 | -80.29850 | 16 ft | 118 kts | 87° |
| 2026-04-25 19:14 | 25.78713 | -80.29065 | 16 ft | 89 kts | 87° |
| 2026-04-25 19:14 | 25.78722 | -80.28851 | 17 ft | 84 kts | 88° |
| 2026-04-25 19:14 | 25.78758 | -80.27972 | 17 ft | 52 kts | 87° |
| 2026-04-25 19:14 | 25.78782 | -80.27679 | 18 ft | 26 kts | 67° |
| 2026-04-25 19:15 | 25.78871 | -80.27585 | 18 ft | 12 kts | 46° |
| 2026-04-25 19:15 | 25.78912 | -80.27505 | 18 ft | 12 kts | 73° |
| 2026-04-25 19:15 | 25.78924 | -80.27417 | 16 ft | 12 kts | 85° |
| 2026-04-25 19:15 | 25.78929 | -80.27320 | 14 ft | 13 kts | 87° |
| 2026-04-25 19:16 | 25.78979 | -80.27241 | 14 ft | 13 kts | 40° |
| 2026-04-25 19:16 | 25.79060 | -80.27214 | 15 ft | 12 kts | 357° |
| 2026-04-25 19:16 | 25.79107 | -80.27225 | 16 ft | 3 kts | 320° |
| 2026-04-25 19:16 | 25.79115 | -80.27250 | 16 ft | 3 kts | 281° |
| 2026-04-25 19:17 | 25.79116 | -80.27276 | 15 ft | 3 kts | 271° |
| 2026-04-25 19:17 | 25.79116 | -80.27297 | 15 ft | 1 kts | 270° |